Time;durP1;ratioP1;P1;durP2;ratioP2;P2;SDS_P1;SDS_P2;PMS_P1;PMS_P2;Temp;Humidity;BMP_temperature;BMP_pressure;BME280_temperature;BME280_humidity;BME280_pressure;Samples;Min_cycle;Max_cycle;Signal;HPM_P1;HPM_P2
2022/02/24 00:00:25;;;;;;;19.82;12.82;;;;;;;10.22;49.81;102006.13;1624518;88;21447;-68
2022/02/24 00:02:51;;;;;;;19.00;13.72;;;;;;;10.21;49.95;102009.16;1600639;88;21068;-69
2022/02/24 00:05:17;;;;;;;20.92;14.05;;;;;;;10.21;49.34;102006.98;1615475;88;21494;-71
2022/02/24 00:07:45;;;;;;;18.40;12.58;;;;;;;10.20;48.98;102015.66;1616558;88;21035;-68
2022/02/24 00:10:13;;;;;;;21.95;14.93;;;;;;;10.20;48.83;102015.66;1616419;88;21003;-68
2022/02/24 00:12:42;;;;;;;20.88;14.93;;;;;;;10.16;49.12;102013.47;1603644;88;20983;-70
2022/02/24 00:15:09;;;;;;;19.60;14.25;;;;;;;10.08;49.34;102009.09;1616084;88;21010;-72
2022/02/24 00:17:37;;;;;;;20.12;15.45;;;;;;;9.99;49.48;102009.12;1611205;88;20978;-72
2022/02/24 00:20:05;;;;;;;18.65;13.78;;;;;;;9.91;50.13;102001.75;1615807;88;21471;-69
2022/02/24 00:22:32;;;;;;;17.67;12.58;;;;;;;9.85;50.50;102003.89;1612382;88;20986;-71
2022/02/24 00:25:00;;;;;;;18.20;12.85;;;;;;;9.81;50.68;102004.75;1613366;88;21506;-72
2022/02/24 00:27:26;;;;;;;19.62;13.20;;;;;;;9.77;50.58;102003.89;1613474;88;20990;-72
2022/02/24 00:29:53;;;;;;;19.57;13.48;;;;;;;9.76;50.81;102013.87;1635059;86;21013;-68
2022/02/24 00:32:20;;;;;;;19.45;12.73;;;;;;;9.74;51.00;102018.20;1638395;87;21006;-69
2022/02/24 00:34:47;;;;;;;19.55;12.43;;;;;;;9.72;51.25;102016.03;1640502;87;21047;-68
2022/02/24 00:37:15;;;;;;;13.58;11.38;;;;;;;9.70;51.52;102007.36;1640079;87;21006;-69
2022/02/24 00:39:43;;;;;;;18.50;11.65;;;;;;;9.71;51.86;102010.80;1639151;87;21069;-71
2022/02/24 00:42:10;;;;;;;16.75;10.48;;;;;;;9.70;51.98;102009.96;1638237;86;21050;-72
2022/02/24 00:44:36;;;;;;;15.60;10.68;;;;;;;9.71;51.94;102014.28;1639083;87;21030;-69
2022/02/24 00:47:03;;;;;;;18.17;10.93;;;;;;;9.72;51.85;102016.03;1640303;87;20958;-70
2022/02/24 00:49:31;;;;;;;19.73;11.33;;;;;;;9.74;51.63;102010.83;1639897;87;21530;-72
2022/02/24 00:51:57;;;;;;;17.82;11.00;;;;;;;9.75;51.50;102016.02;1653261;85;21503;-71
2022/02/24 00:54:23;;;;;;;15.00;10.13;;;;;;;9.75;51.32;102008.22;1688177;84;21459;-68
2022/02/24 00:56:50;;;;;;;16.65;10.28;;;;;;;9.75;51.32;102014.72;1689420;83;20976;-73
2022/02/24 00:59:17;;;;;;;15.32;10.90;;;;;;;9.73;51.40;102021.64;1689208;83;20977;-71
2022/02/24 01:01:45;;;;;;;14.35;9.75;;;;;;;9.72;51.54;102026.42;1687150;83;20997;-68
2022/02/24 01:04:11;;;;;;;13.08;9.55;;;;;;;9.70;51.70;102025.98;1688948;83;20999;-71
2022/02/24 01:06:38;;;;;;;12.05;9.30;;;;;;;9.68;51.85;102035.08;1688567;83;21059;-71
2022/02/24 01:09:05;;;;;;;12.70;9.03;;;;;;;9.68;51.94;102025.98;1688605;83;21003;-69
2022/02/24 01:11:32;;;;;;;14.53;9.73;;;;;;;9.68;52.16;102033.78;1688757;85;21001;-70
2022/02/24 01:13:59;;;;;;;11.93;9.43;;;;;;;9.65;52.29;102029.86;1688679;83;20981;-71
2022/02/24 01:16:25;;;;;;;14.90;9.15;;;;;;;9.65;52.08;102023.78;1688752;83;21031;-70
2022/02/24 01:18:52;;;;;;;10.88;8.10;;;;;;;9.63;52.20;102025.52;1688790;84;20973;-71
2022/02/24 01:21:19;;;;;;;12.58;8.70;;;;;;;9.62;52.42;102027.24;1688829;83;21511;-73
2022/02/24 01:23:45;;;;;;;11.15;8.68;;;;;;;9.64;52.48;102025.52;1688877;83;21512;-69
2022/02/24 01:26:12;;;;;;;12.23;8.20;;;;;;;9.61;52.64;102022.92;1688670;83;20999;-69
2022/02/24 01:28:38;;;;;;;12.95;8.25;;;;;;;9.62;52.91;102031.59;1686866;83;21055;-72
2022/02/24 01:31:06;;;;;;;13.03;8.90;;;;;;;9.61;52.80;102026.82;1681876;85;21024;-70
2022/02/24 01:33:32;;;;;;;12.45;9.08;;;;;;;9.59;52.89;102028.55;1682061;85;20976;-70
2022/02/24 01:35:58;;;;;;;13.60;8.38;;;;;;;9.56;52.96;102031.13;1681793;85;20991;-71
2022/02/24 01:38:25;;;;;;;10.50;7.90;;;;;;;9.55;52.94;102028.11;1681974;85;20965;-68
2022/02/24 01:40:51;;;;;;;11.78;7.75;;;;;;;9.54;52.95;102031.55;1681947;85;21000;-71
2022/02/24 01:43:18;;;;;;;12.73;8.00;;;;;;;9.51;53.24;102031.56;1681929;85;20972;-69
2022/02/24 01:45:44;;;;;;;10.68;7.55;;;;;;;9.50;53.46;102038.91;1681977;84;21047;-68
2022/02/24 01:48:11;;;;;;;11.68;7.30;;;;;;;9.50;53.52;102032.41;1681948;85;20972;-69
2022/02/24 01:50:39;;;;;;;12.65;7.45;;;;;;;9.50;53.71;102035.01;1681710;84;21004;-72
2022/02/24 01:53:06;;;;;;;9.55;7.03;;;;;;;9.52;54.04;102030.69;1681892;85;20979;-75
2022/02/24 01:55:33;;;;;;;9.88;6.53;;;;;;;9.49;54.02;102034.59;1681892;85;21063;-72
2022/02/24 01:57:59;;;;;;;8.15;6.75;;;;;;;9.45;54.19;102031.55;1681431;85;20962;-73
2022/02/24 02:00:25;;;;;;;8.35;6.50;;;;;;;9.45;54.27;102045.84;1681785;85;21000;-70
2022/02/24 02:02:52;;;;;;;8.43;6.15;;;;;;;9.44;54.29;102045.38;1681939;85;20984;-70
2022/02/24 02:05:18;;;;;;;9.63;6.40;;;;;;;9.44;54.35;102049.28;1681901;85;21015;-72
2022/02/24 02:07:45;;;;;;;8.35;6.35;;;;;;;9.44;54.44;102047.98;1682063;85;20999;-74
2022/02/24 02:10:12;;;;;;;8.93;6.45;;;;;;;9.44;54.59;102057.50;1681725;85;20984;-71
2022/02/24 02:12:51;;;;;;;8.35;6.30;;;;;;;9.45;54.50;102057.95;1681661;85;20999;-72
2022/02/24 02:15:18;;;;;;;9.53;6.33;;;;;;;9.44;54.83;102059.67;1611437;88;21013;-73
2022/02/24 02:17:44;;;;;;;9.20;6.40;;;;;;;9.44;54.87;102063.57;1610506;88;21005;-69
2022/02/24 02:20:11;;;;;;;10.63;6.75;;;;;;;9.45;54.95;102072.24;1613950;88;21051;-69
2022/02/24 02:22:38;;;;;;;8.45;6.08;;;;;;;9.45;54.94;102073.12;1612201;88;21033;-71
2022/02/24 02:25:06;;;;;;;9.80;6.62;;;;;;;9.43;54.96;102074.84;1611056;88;21103;-70
2022/02/24 02:27:34;;;;;;;9.05;6.72;;;;;;;9.43;55.07;102073.55;1605546;88;20997;-71
2022/02/24 02:30:00;;;;;;;9.13;6.60;;;;;;;9.40;55.29;102080.01;1623106;88;21097;-75
2022/02/24 02:32:27;;;;;;;9.08;6.78;;;;;;;9.38;55.18;102084.33;1623377;88;21021;-72
2022/02/24 02:34:54;;;;;;;10.20;6.85;;;;;;;9.37;55.29;102083.03;1625389;88;20994;-69
2022/02/24 02:37:21;;;;;;;7.95;6.25;;;;;;;9.34;55.26;102087.78;1626142;88;21001;-76
2022/02/24 02:39:47;;;;;;;9.70;6.17;;;;;;;9.33;55.19;102092.55;1626697;88;21025;-72
2022/02/24 02:42:15;;;;;;;9.53;6.28;;;;;;;9.33;55.16;102095.16;1626150;88;21001;-69
2022/02/24 02:44:41;;;;;;;7.25;5.95;;;;;;;9.34;55.03;102100.77;1623790;88;21457;-68
2022/02/24 02:47:08;;;;;;;10.32;6.87;;;;;;;9.35;55.07;102104.23;1623562;88;21541;-73
2022/02/24 02:49:35;;;;;;;11.20;6.50;;;;;;;9.34;55.15;102105.96;1624250;88;20997;-69
2022/02/24 02:52:02;;;;;;;9.98;6.97;;;;;;;9.35;55.07;102118.11;1623864;88;21033;-69
2022/02/24 02:54:28;;;;;;;9.80;6.87;;;;;;;9.32;54.96;102115.48;1624797;88;21041;-71
2022/02/24 02:56:54;;;;;;;9.10;6.10;;;;;;;9.29;55.12;102103.80;1626698;88;21017;-69
2022/02/24 02:59:21;;;;;;;12.07;7.10;;;;;;;9.29;55.04;102108.98;1622778;88;21005;-74
2022/02/24 03:01:52;;;;;;;9.33;6.60;;;;;;;9.28;55.10;102105.94;1626767;88;21021;-72
2022/02/24 03:04:19;;;;;;;7.75;6.25;;;;;;;9.31;55.04;102103.37;1595464;88;21002;-74
2022/02/24 03:06:46;;;;;;;9.20;6.65;;;;;;;9.32;55.22;102107.69;1623586;88;21494;-69
2022/02/24 03:09:12;;;;;;;9.18;6.45;;;;;;;9.31;55.20;102108.56;1623725;88;21027;-73
2022/02/24 03:11:39;;;;;;;10.03;7.05;;;;;;;9.30;55.25;102105.51;1623823;88;21009;-70
2022/02/24 03:14:05;;;;;;;8.30;6.47;;;;;;;9.29;55.27;102112.88;1623657;88;20970;-70
2022/02/24 03:16:33;;;;;;;9.23;7.10;;;;;;;9.26;55.27;102106.36;1623716;88;21455;-72
2022/02/24 03:18:59;;;;;;;7.95;6.70;;;;;;;9.23;55.33;102107.66;1623703;88;21490;-69
2022/02/24 03:21:26;;;;;;;12.15;7.00;;;;;;;9.20;55.26;102110.23;1623466;88;21522;-72
2022/02/24 03:23:52;;;;;;;9.93;6.53;;;;;;;9.17;55.30;102112.79;1623850;88;21005;-72
2022/02/24 03:26:19;;;;;;;10.20;6.95;;;;;;;9.16;55.32;102116.27;1623612;88;21470;-69
2022/02/24 03:28:45;;;;;;;9.55;6.87;;;;;;;9.13;55.43;102112.79;1623496;88;20990;-69
2022/02/24 03:31:12;;;;;;;9.25;7.15;;;;;;;9.09;55.57;102117.07;1623237;88;21045;-69
2022/02/24 03:33:40;;;;;;;10.08;7.05;;;;;;;9.08;55.74;102117.95;1623608;88;21058;-70
2022/02/24 03:36:06;;;;;;;9.20;6.97;;;;;;;9.08;55.90;102124.44;1623561;88;20986;-69
2022/02/24 03:38:34;;;;;;;9.93;7.65;;;;;;;9.05;55.79;102112.72;1623561;88;21013;-71
2022/02/24 03:41:01;;;;;;;9.73;7.55;;;;;;;9.02;55.98;102119.21;1623676;88;21065;-74
2022/02/24 03:43:28;;;;;;;9.88;7.67;;;;;;;9.00;56.07;102122.23;1623634;88;21010;-70
2022/02/24 03:45:54;;;;;;;8.78;6.65;;;;;;;8.98;56.10;102125.25;1623633;88;21025;-71
2022/02/24 03:48:21;;;;;;;8.58;6.78;;;;;;;8.98;56.20;102119.59;1623749;88;21048;-70
2022/02/24 03:50:49;;;;;;;8.85;6.75;;;;;;;8.99;56.24;102121.77;1623616;88;21086;-69
2022/02/24 03:53:15;;;;;;;8.98;7.42;;;;;;;9.01;56.23;102123.95;1623869;88;20970;-68
2022/02/24 03:55:42;;;;;;;8.68;7.22;;;;;;;9.02;56.15;102128.30;1623675;88;21462;-70
2022/02/24 03:58:10;;;;;;;9.63;7.33;;;;;;;9.02;56.31;102125.70;1623809;88;20986;-69
2022/02/24 04:00:37;;;;;;;9.55;7.58;;;;;;;9.05;56.34;102117.07;1648379;85;21539;-74
2022/02/24 04:03:03;;;;;;;9.58;7.12;;;;;;;9.07;56.27;102136.97;1686763;83;21537;-72
2022/02/24 04:05:29;;;;;;;11.80;7.12;;;;;;;9.09;56.37;102127.46;1688937;83;21506;-69
2022/02/24 04:07:56;;;;;;;8.58;7.03;;;;;;;9.08;56.46;102133.53;1688555;83;21428;-70
2022/02/24 04:10:23;;;;;;;10.15;7.85;;;;;;;9.09;56.33;102132.66;1689101;83;21024;-72
2022/02/24 04:12:51;;;;;;;10.25;7.03;;;;;;;9.10;56.37;102131.81;1688984;83;21003;-70
2022/02/24 04:15:18;;;;;;;10.13;7.12;;;;;;;9.12;56.37;102143.49;1688659;83;21067;-71
2022/02/24 04:17:44;;;;;;;10.82;8.38;;;;;;;9.11;56.49;102142.62;1688820;84;20995;-69
2022/02/24 04:20:10;;;;;;;11.28;8.10;;;;;;;9.12;56.45;102150.86;1688881;83;21016;-73
2022/02/24 04:22:37;;;;;;;10.82;7.70;;;;;;;9.10;56.48;102152.58;1689367;83;20976;-71
2022/02/24 04:25:04;;;;;;;8.45;7.05;;;;;;;9.08;56.60;102153.00;1688693;85;21003;-71
2022/02/24 04:27:31;;;;;;;9.83;7.70;;;;;;;9.06;56.65;102154.72;1688793;83;21003;-71
2022/02/24 04:29:58;;;;;;;11.43;8.28;;;;;;;9.03;56.67;102152.09;1665699;84;20998;-71
2022/02/24 04:32:24;;;;;;;12.28;8.40;;;;;;;9.01;56.84;102153.39;1649221;86;20986;-70
2022/02/24 04:34:51;;;;;;;9.85;7.80;;;;;;;9.00;56.80;102150.78;1650282;86;21030;-70
2022/02/24 04:37:17;;;;;;;9.75;7.65;;;;;;;8.99;56.95;102160.72;1649513;86;21014;-72
2022/02/24 04:39:44;;;;;;;11.90;7.75;;;;;;;8.98;56.99;102155.10;1647644;86;20999;-69
2022/02/24 04:42:10;;;;;;;10.08;7.85;;;;;;;8.97;57.10;102162.44;1649336;86;20990;-73
2022/02/24 04:44:37;;;;;;;10.85;7.55;;;;;;;8.96;57.14;102171.09;1649934;86;21029;-73
2022/02/24 04:47:04;;;;;;;9.35;7.90;;;;;;;8.95;57.22;102181.02;1650446;86;20966;-69
2022/02/24 04:49:31;;;;;;;9.40;8.08;;;;;;;8.94;57.12;102180.60;1649063;86;21466;-70
2022/02/24 04:51:58;;;;;;;11.45;8.73;;;;;;;8.93;57.18;102191.41;1647347;86;21049;-71
2022/02/24 04:54:24;;;;;;;14.78;7.80;;;;;;;8.93;57.14;102187.94;1641798;86;21002;-76
2022/02/24 04:56:51;;;;;;;9.70;8.18;;;;;;;8.92;57.14;102196.59;1650714;86;21009;-70
2022/02/24 04:59:17;;;;;;;12.75;8.23;;;;;;;8.92;57.34;102201.78;1649577;86;21010;-73
2022/02/24 05:01:44;;;;;;;9.40;8.03;;;;;;;8.92;57.51;102206.98;1648119;86;21041;-70
2022/02/24 05:04:10;;;;;;;9.85;7.58;;;;;;;8.92;57.34;102210.42;1646343;86;20990;-70
2022/02/24 05:06:38;;;;;;;9.80;8.03;;;;;;;8.94;57.50;102216.49;1653640;86;21036;-69
2022/02/24 05:09:05;;;;;;;8.23;7.33;;;;;;;8.97;57.41;102223.44;1647708;86;21034;-70
2022/02/24 05:11:32;;;;;;;12.70;8.55;;;;;;;9.00;57.33;102216.99;1636243;86;21577;-69
2022/02/24 05:13:59;;;;;;;8.63;7.58;;;;;;;9.03;57.10;102219.59;1654296;85;21002;-70
2022/02/24 05:16:26;;;;;;;11.03;8.20;;;;;;;9.05;56.83;102225.67;1647842;86;21002;-71
2022/02/24 05:18:52;;;;;;;10.30;8.03;;;;;;;9.03;56.85;102223.48;1635485;86;21557;-72
2022/02/24 05:21:19;;;;;;;10.58;7.92;;;;;;;9.00;56.86;102228.22;1650511;86;21513;-75
2022/02/24 05:23:45;;;;;;;11.10;8.98;;;;;;;9.00;56.98;102228.67;1643956;86;21013;-69
2022/02/24 05:26:13;;;;;;;11.53;8.40;;;;;;;8.99;56.97;102229.09;1646891;86;20986;-72
2022/02/24 05:28:39;;;;;;;12.85;8.28;;;;;;;8.99;57.16;102229.52;1647679;86;20978;-69
2022/02/24 05:31:06;;;;;;;12.37;8.35;;;;;;;9.00;57.48;102229.52;1648291;84;21069;-69
2022/02/24 05:33:32;;;;;;;10.93;8.55;;;;;;;9.02;57.66;102230.86;1650163;86;20978;-72
2022/02/24 05:36:00;;;;;;;11.15;7.90;;;;;;;9.05;57.32;102237.35;1650168;86;20990;-69
2022/02/24 05:38:26;;;;;;;9.08;7.35;;;;;;;9.09;57.36;102249.50;1604720;86;20994;-69
2022/02/24 05:40:52;;;;;;;10.03;8.05;;;;;;;9.11;57.22;102245.19;1648603;86;20988;-72
2022/02/24 05:43:19;;;;;;;10.18;7.78;;;;;;;9.14;57.25;102245.23;1638342;86;21038;-70
2022/02/24 05:45:46;;;;;;;13.00;8.53;;;;;;;9.16;57.15;102250.00;1648858;86;21489;-69
2022/02/24 05:48:12;;;;;;;14.25;8.83;;;;;;;9.19;57.05;102253.06;1646115;86;21463;-72
2022/02/24 05:50:40;;;;;;;9.45;7.30;;;;;;;9.21;57.15;102251.34;1648554;86;21003;-70
2022/02/24 05:53:07;;;;;;;11.60;8.33;;;;;;;9.23;57.17;102251.80;1647347;86;21001;-70
2022/02/24 05:55:33;;;;;;;11.97;8.10;;;;;;;9.26;57.21;102255.70;1647695;86;21553;-72
2022/02/24 05:58:00;;;;;;;10.25;7.83;;;;;;;9.27;56.87;102263.95;1647448;86;20990;-74
2022/02/24 06:00:27;;;;;;;9.63;7.65;;;;;;;9.25;57.02;102266.97;1647006;86;20978;-72
2022/02/24 06:02:54;;;;;;;12.90;7.92;;;;;;;9.25;57.00;102269.56;1649280;86;21022;-70
2022/02/24 06:05:21;;;;;;;12.33;8.20;;;;;;;9.28;57.02;102273.47;1650506;86;20986;-71
2022/02/24 06:07:47;;;;;;;11.55;8.88;;;;;;;9.30;56.92;102282.56;1649441;86;21022;-71
2022/02/24 06:10:15;;;;;;;10.85;7.97;;;;;;;9.32;57.03;102286.92;1646632;86;20955;-69
2022/02/24 06:12:42;;;;;;;14.05;8.30;;;;;;;9.34;57.07;102282.60;1637362;86;21522;-70
2022/02/24 06:15:09;;;;;;;10.23;7.53;;;;;;;9.37;56.89;102283.06;1650334;86;21506;-72
2022/02/24 06:17:36;;;;;;;10.78;8.08;;;;;;;9.38;56.75;102292.16;1646064;86;21002;-71
2022/02/24 06:20:03;;;;;;;9.95;7.62;;;;;;;9.41;56.66;102281.80;1650331;86;20958;-72
2022/02/24 06:22:31;;;;;;;10.85;7.70;;;;;;;9.49;56.36;102285.32;1647162;86;21478;-71
2022/02/24 06:24:58;;;;;;;10.53;7.50;;;;;;;9.59;56.21;102282.34;1646855;86;21470;-70
2022/02/24 06:27:24;;;;;;;8.88;6.97;;;;;;;9.71;56.02;102283.72;1647635;85;21002;-69
2022/02/24 06:29:51;;;;;;;8.80;7.90;;;;;;;9.83;55.64;102285.08;1646834;84;21526;-69
2022/02/24 06:32:17;;;;;;;9.65;7.92;;;;;;;9.90;55.52;102285.98;1648653;86;21470;-72
2022/02/24 06:34:44;;;;;;;9.90;7.42;;;;;;;9.94;55.28;102284.72;1650274;86;21507;-72
2022/02/24 06:37:11;;;;;;;10.40;7.75;;;;;;;9.99;55.28;102289.53;1650593;86;20998;-75
2022/02/24 06:39:37;;;;;;;11.05;7.72;;;;;;;10.08;55.07;102288.67;1647407;86;21478;-74
2022/02/24 06:42:04;;;;;;;9.75;7.87;;;;;;;10.16;54.87;102292.24;1649313;86;21050;-71
2022/02/24 06:44:31;;;;;;;9.73;7.95;;;;;;;10.21;54.74;102295.72;1650094;86;21009;-70
2022/02/24 06:46:57;;;;;;;10.85;8.70;;;;;;;10.27;54.67;102302.24;1637355;86;21061;-72
2022/02/24 06:49:24;;;;;;;9.68;8.00;;;;;;;10.30;54.25;102297.06;1648576;86;21013;-70
2022/02/24 06:51:52;;;;;;;8.03;7.20;;;;;;;10.33;54.33;102297.94;1648286;86;21022;-78
2022/02/24 06:54:18;;;;;;;10.10;7.62;;;;;;;10.39;54.26;102302.28;1649609;86;21042;-71
2022/02/24 06:56:45;;;;;;;9.78;7.90;;;;;;;10.41;54.26;102302.73;1650245;86;20978;-69
2022/02/24 06:59:11;;;;;;;9.40;8.15;;;;;;;10.45;54.15;102297.98;1651704;86;20998;-69
2022/02/24 07:01:37;;;;;;;8.50;7.60;;;;;;;10.47;53.96;102305.78;1648168;86;20962;-72
2022/02/24 07:04:04;;;;;;;10.03;8.03;;;;;;;10.49;54.09;102301.45;1646811;86;21002;-69
2022/02/24 07:06:32;;;;;;;10.10;8.38;;;;;;;10.53;53.78;102305.83;1647584;86;21038;-72
2022/02/24 07:08:58;;;;;;;11.38;8.78;;;;;;;10.55;53.89;102309.30;1647186;86;21006;-69
2022/02/24 07:11:25;;;;;;;12.20;9.50;;;;;;;10.58;53.64;102306.69;1642733;86;21032;-70
2022/02/24 07:13:53;;;;;;;12.28;8.43;;;;;;;10.59;53.76;102313.66;1649270;86;21014;-71
2022/02/24 07:16:20;;;;;;;9.50;7.67;;;;;;;10.61;53.82;102317.13;1638708;86;20974;-69
2022/02/24 07:18:46;;;;;;;9.75;8.35;;;;;;;10.63;54.02;102313.64;1649021;86;21463;-70
2022/02/24 07:21:13;;;;;;;8.45;7.20;;;;;;;10.69;54.13;102311.94;1650250;86;21490;-73
2022/02/24 07:23:39;;;;;;;13.22;7.17;;;;;;;10.75;53.88;102318.45;1649333;86;21456;-69
2022/02/24 07:26:07;;;;;;;8.15;6.92;;;;;;;10.82;53.86;102321.52;1648529;86;21030;-73
2022/02/24 07:28:34;;;;;;;10.88;7.65;;;;;;;10.87;53.77;102318.05;1627311;86;21018;-72
2022/02/24 07:31:02;;;;;;;8.98;6.83;;;;;;;10.92;53.79;102320.21;1675056;84;21034;-72
2022/02/24 07:33:29;;;;;;;8.98;7.30;;;;;;;10.99;53.80;102323.27;1688653;83;21488;-70
2022/02/24 07:35:56;;;;;;;8.75;7.60;;;;;;;11.06;53.34;102322.42;1688983;83;20988;-69
2022/02/24 07:38:22;;;;;;;8.95;7.58;;;;;;;11.12;53.03;102317.22;1688812;83;21007;-73
2022/02/24 07:40:48;;;;;;;11.80;7.80;;;;;;;11.17;52.86;102318.08;1688533;83;21007;-70
2022/02/24 07:43:15;;;;;;;7.30;6.42;;;;;;;11.22;52.81;102319.39;1688932;83;20996;-69
2022/02/24 07:45:41;;;;;;;8.45;7.65;;;;;;;11.23;52.83;102322.44;1689042;83;20961;-69
2022/02/24 07:48:08;;;;;;;8.25;7.42;;;;;;;11.25;52.84;102324.16;1688129;83;21472;-69
2022/02/24 07:50:35;;;;;;;8.50;7.17;;;;;;;11.27;52.76;102327.63;1689167;83;20999;-69
2022/02/24 07:53:02;;;;;;;10.48;6.95;;;;;;;11.28;52.91;102331.11;1688901;84;20973;-72
2022/02/24 07:55:30;;;;;;;9.05;7.15;;;;;;;11.29;52.82;102331.10;1689064;83;20992;-69
2022/02/24 07:57:57;;;;;;;7.30;6.40;;;;;;;11.32;52.45;102336.33;1688365;83;20953;-69
2022/02/24 08:00:23;;;;;;;11.22;7.50;;;;;;;11.31;52.38;102339.79;1688830;83;21039;-72
2022/02/24 08:02:55;;;;;;;8.23;7.05;;;;;;;11.30;52.39;102344.58;1688971;83;20988;-69
2022/02/24 08:05:21;;;;;;;11.43;7.25;;;;;;;11.32;52.38;102342.84;1673831;83;21516;-73
2022/02/24 08:07:47;;;;;;;8.18;6.80;;;;;;;11.35;52.59;102338.92;1688660;84;21599;-73
2022/02/24 08:10:14;;;;;;;9.00;7.03;;;;;;;11.37;51.97;102345.00;1688658;83;21496;-70
2022/02/24 08:12:42;;;;;;;8.95;7.50;;;;;;;11.34;51.45;102337.63;1688375;84;21000;-71
2022/02/24 08:15:17;;;;;;;8.68;6.97;;;;;;;11.30;51.48;102335.47;1688732;83;20953;-70
2022/02/24 08:17:43;;;;;;;7.12;6.42;;;;;;;11.28;51.51;102337.20;1652565;86;20997;-71
2022/02/24 08:20:11;;;;;;;8.73;7.00;;;;;;;11.28;51.58;102338.93;1656692;86;21418;-69
2022/02/24 08:22:45;;;;;;;9.38;6.90;;;;;;;11.30;51.48;102339.80;1614260;88;21014;-70
2022/02/24 08:25:14;;;;;;;9.98;7.47;;;;;;;11.27;51.36;102336.75;1579734;89;21025;-71
2022/02/24 08:27:41;;;;;;;8.48;7.03;;;;;;;11.29;51.41;102344.13;1629585;87;21041;-70
2022/02/24 08:30:20;;;;;;;11.68;7.17;;;;;;;11.32;51.56;102343.27;1631265;87;21036;-73
2022/02/24 08:32:47;;;;;;;8.78;6.92;;;;;;;11.35;51.80;102344.13;1632736;86;21013;-74
2022/02/24 08:35:13;;;;;;;7.60;6.90;;;;;;;11.36;51.51;102341.10;1632825;86;21016;-71
2022/02/24 08:37:40;;;;;;;8.20;7.08;;;;;;;11.36;51.39;102348.49;1635369;86;20984;-70
2022/02/24 08:40:08;;;;;;;9.08;7.78;;;;;;;11.37;51.50;102347.61;1635634;86;21013;-73
2022/02/24 08:42:35;;;;;;;7.87;6.70;;;;;;;11.40;51.52;102347.63;1631628;87;21521;-70
2022/02/24 08:45:02;;;;;;;9.18;6.55;;;;;;;11.41;51.54;102342.86;1625376;87;21570;-75
2022/02/24 08:47:29;;;;;;;8.65;7.75;;;;;;;11.46;51.59;102350.23;1633046;87;21033;-76
2022/02/24 08:49:55;;;;;;;8.50;6.95;;;;;;;11.52;51.44;102349.81;1635597;87;21040;-70
2022/02/24 08:52:22;;;;;;;9.75;7.37;;;;;;;11.55;51.52;102347.18;1635596;86;21080;-75
2022/02/24 08:54:48;;;;;;;7.70;6.78;;;;;;;11.60;51.36;102350.67;1633471;86;21012;-70
2022/02/24 08:57:15;;;;;;;7.58;6.85;;;;;;;11.60;50.88;102348.94;1634354;86;21061;-72
2022/02/24 08:59:43;;;;;;;7.72;6.70;;;;;;;11.58;50.85;102350.65;1634600;86;21069;-73
2022/02/24 09:02:10;;;;;;;10.05;7.42;;;;;;;11.58;51.09;102349.34;1635592;86;21013;-69
2022/02/24 09:04:37;;;;;;;8.95;7.87;;;;;;;11.59;51.23;102347.61;1635522;86;21024;-71
2022/02/24 09:07:04;;;;;;;8.38;7.08;;;;;;;11.63;51.47;102351.95;1633430;86;21064;-75
2022/02/24 09:09:30;;;;;;;9.83;6.62;;;;;;;11.64;51.14;102348.49;1632620;86;20992;-71
2022/02/24 09:11:57;;;;;;;7.85;6.30;;;;;;;11.64;51.14;102348.06;1624757;87;21057;-71
2022/02/24 09:14:24;;;;;;;8.13;6.22;;;;;;;11.69;50.90;102355.89;1639552;87;21012;-73
2022/02/24 09:16:52;;;;;;;8.30;6.60;;;;;;;11.72;50.79;102352.87;1617490;87;21045;-73
2022/02/24 09:19:19;;;;;;;7.72;6.40;;;;;;;11.76;50.57;102351.99;1647277;86;21016;-71
2022/02/24 09:21:46;;;;;;;6.65;6.05;;;;;;;11.81;50.80;102353.30;1617493;87;21501;-69
2022/02/24 09:24:12;;;;;;;9.10;7.22;;;;;;;11.87;50.75;102355.89;1664548;85;21512;-74
2022/02/24 09:26:39;;;;;;;9.58;7.78;;;;;;;11.92;50.61;102355.00;1688902;83;21034;-69
2022/02/24 09:29:05;;;;;;;10.75;8.85;;;;;;;11.97;50.49;102356.31;1688947;83;21047;-69
2022/02/24 09:31:32;;;;;;;9.25;7.35;;;;;;;12.01;49.98;102351.05;1688599;83;21016;-70
2022/02/24 09:33:59;;;;;;;8.10;7.30;;;;;;;12.04;49.47;102348.45;1688713;83;21024;-68
2022/02/24 09:36:25;;;;;;;8.55;7.67;;;;;;;12.06;49.50;102352.35;1688672;83;21488;-69
2022/02/24 09:38:51;;;;;;;8.83;7.72;;;;;;;12.06;49.32;102354.53;1688742;84;21008;-70
2022/02/24 09:41:19;;;;;;;9.03;8.00;;;;;;;12.05;49.34;102357.16;1688599;83;21003;-71
2022/02/24 09:43:45;;;;;;;10.45;8.88;;;;;;;12.03;49.47;102353.25;1678350;85;21487;-69
2022/02/24 09:46:12;;;;;;;10.75;9.30;;;;;;;12.02;49.62;102351.93;1688461;83;20961;-72
2022/02/24 09:48:44;;;;;;;11.18;8.28;;;;;;;12.04;49.82;102350.19;1688661;83;20980;-72
2022/02/24 09:51:15;;;;;;;10.05;8.40;;;;;;;12.08;50.16;102351.91;1688814;83;21473;-69
2022/02/24 09:53:42;;;;;;;11.30;8.33;;;;;;;12.13;49.98;102352.35;1655532;86;21012;-70
2022/02/24 09:56:15;;;;;;;10.08;8.53;;;;;;;12.19;49.65;102340.59;1655415;86;20988;-74
2022/02/24 09:58:41;;;;;;;10.75;8.38;;;;;;;12.25;49.70;102342.30;1652152;86;21503;-68
2022/02/24 10:01:08;;;;;;;13.78;8.60;;;;;;;12.31;49.52;102346.19;1655479;86;21460;-71
2022/02/24 10:03:40;;;;;;;8.55;7.55;;;;;;;12.35;49.47;102341.39;1655442;87;21000;-69
2022/02/24 10:06:05;;;;;;;10.03;7.65;;;;;;;12.39;48.72;102331.36;1655248;86;21015;-69
2022/02/24 10:08:37;;;;;;;11.65;9.13;;;;;;;12.42;48.95;102331.37;1655375;86;21048;-69
2022/02/24 10:11:07;;;;;;;10.63;9.33;;;;;;;12.46;49.20;102335.70;1579635;90;21046;-72
2022/02/24 10:13:33;;;;;;;11.50;10.30;;;;;;;12.52;49.43;102333.06;1557886;92;21489;-71
2022/02/24 10:16:01;;;;;;;12.25;10.65;;;;;;;12.59;49.43;102330.83;1558130;92;21513;-75
2022/02/24 10:18:31;;;;;;;12.23;10.85;;;;;;;12.72;49.31;102341.66;1558093;91;21536;-70
2022/02/24 10:21:00;;;;;;;12.07;10.78;;;;;;;12.80;49.06;102338.55;1558143;92;21049;-72
2022/02/24 10:23:38;;;;;;;12.50;11.15;;;;;;;12.87;49.05;102333.73;1558048;91;21006;-74
2022/02/24 10:26:13;;;;;;;12.43;10.80;;;;;;;12.98;48.67;102328.45;1558249;92;21045;-70
2022/02/24 10:28:49;;;;;;;14.07;11.18;;;;;;;13.07;48.32;102332.31;1548166;92;21001;-69
2022/02/24 10:31:23;;;;;;;14.40;10.63;;;;;;;13.15;48.13;102326.59;1557125;92;21549;-71
2022/02/24 10:33:54;;;;;;;14.23;10.58;;;;;;;13.23;47.92;102322.64;1556132;92;21001;-69
2022/02/24 10:36:23;;;;;;;13.10;10.55;;;;;;;13.29;47.53;102322.59;1512135;95;21096;-69
2022/02/24 10:39:10;;;;;;;12.07;10.43;;;;;;;13.31;47.42;102318.21;1511860;95;21108;-69
2022/02/24 10:41:41;;;;;;;11.45;10.28;;;;;;;13.33;47.11;102313.41;1511763;93;21092;-71
2022/02/24 10:44:23;;;;;;;12.23;10.65;;;;;;;13.31;46.73;102307.33;1445219;98;21059;-69
2022/02/24 10:46:53;;;;;;;;;;;;;;;13.36;46.67;102308.56;1446993;98;21525;-69
2022/02/24 10:49:37;;;;;;;14.58;11.65;;;;;;;13.35;46.19;102307.72;1445244;98;20407;-69
2022/02/24 10:52:13;;;;;;;14.15;10.78;;;;;;;13.34;46.22;102307.71;1494061;95;21052;-69
2022/02/24 10:54:42;;;;;;;14.15;11.15;;;;;;;13.32;46.50;102314.70;1499543;94;21487;-69
2022/02/24 10:57:21;;;;;;;13.45;10.75;;;;;;;13.35;46.51;102313.38;1502077;93;21039;-74
2022/02/24 10:59:48;;;;;;;15.58;10.50;;;;;;;13.40;46.11;102311.14;1441973;98;21090;-72
2022/02/24 11:02:14;;;;;;;12.03;10.58;;;;;;;13.45;45.80;102313.73;1444550;97;21055;-71
2022/02/24 11:04:42;;;;;;;14.35;11.03;;;;;;;13.43;45.84;102315.48;1443044;97;21082;-69
2022/02/24 11:07:09;;;;;;;16.85;11.90;;;;;;;13.42;46.04;102319.84;1431750;98;21068;-68
2022/02/24 11:09:37;;;;;;;12.53;10.40;;;;;;;13.39;45.99;102313.78;1438884;97;21037;-69
2022/02/24 11:12:07;;;;;;;12.03;10.72;;;;;;;13.32;46.35;102312.09;1443107;97;21081;-72
2022/02/24 11:14:34;;;;;;;17.32;11.35;;;;;;;13.23;46.53;102312.19;1421971;99;21042;-73
2022/02/24 11:17:06;;;;;;;14.75;10.15;;;;;;;13.21;46.66;102308.71;1429819;97;21087;-70
2022/02/24 11:19:36;;;;;;;12.47;10.25;;;;;;;13.17;46.97;102313.53;1430081;99;21611;-76
2022/02/24 11:22:04;;;;;;;15.32;10.48;;;;;;;13.16;46.96;102314.40;1430054;99;21106;-72
2022/02/24 11:24:31;;;;;;;14.68;11.22;;;;;;;13.15;46.84;102310.91;1429679;100;21081;-70